Time;durP1;ratioP1;P1;durP2;ratioP2;P2;SDS_P1;SDS_P2;PMS_P1;PMS_P2;Temp;Humidity;BMP_temperature;BMP_pressure;BME280_temperature;BME280_humidity;BME280_pressure;Samples;Min_cycle;Max_cycle;Signal;HPM_P1;HPM_P2
2023/01/10 00:00:27;;;;;;;4.75;0.10;;;6.00;99.90;;;;;;5017804;28;20436;-79
2023/01/10 00:02:53;;;;;;;9.40;0.85;;;6.10;99.90;;;;;;5017038;28;20022;-79
2023/01/10 00:05:22;;;;;;;11.57;0.47;;;6.10;99.90;;;;;;5017116;28;20025;-80
2023/01/10 00:07:47;;;;;;;8.02;1.40;;;6.20;99.90;;;;;;5017394;28;20547;-80
2023/01/10 00:10:13;;;;;;;8.98;0.63;;;6.20;99.90;;;;;;5017222;28;20026;-81
2023/01/10 00:15:26;;;;;;;7.82;0.10;;;6.30;99.90;;;;;;5020341;28;20105;-80
2023/01/10 00:17:51;;;;;;;12.60;1.20;;;6.30;99.90;;;;;;5019456;28;20053;-80
2023/01/10 00:20:17;;;;;;;11.75;1.65;;;6.30;99.90;;;;;;5018269;28;20054;-79
2023/01/10 00:22:46;;;;;;;4.28;0.57;;;6.30;99.90;;;;;;5017023;28;20487;-80
2023/01/10 00:25:12;;;;;;;6.25;0.82;;;6.40;99.90;;;;;;5017863;28;20492;-81
2023/01/10 00:27:38;;;;;;;7.13;0.68;;;6.40;99.90;;;;;;5017653;28;20117;-80
2023/01/10 00:30:13;;;;;;;14.05;0.63;;;6.50;99.90;;;;;;5019089;28;20022;-80
2023/01/10 00:32:42;;;;;;;8.25;0.30;;;6.50;99.90;;;;;;5017988;28;20503;-80
2023/01/10 00:35:10;;;;;;;2.58;0.63;;;6.50;99.90;;;;;;5018241;28;20022;-81
2023/01/10 00:37:38;;;;;;;12.77;1.75;;;6.60;99.90;;;;;;5017412;28;20029;-80
2023/01/10 00:40:09;;;;;;;7.18;0.47;;;6.50;99.90;;;;;;5018741;28;20026;-80
2023/01/10 00:45:24;;;;;;;6.35;0.28;;;6.70;99.90;;;;;;5019719;28;20100;-80
2023/01/10 00:47:51;;;;;;;9.90;0.65;;;6.70;99.90;;;;;;5017523;28;20026;-80
2023/01/10 00:50:19;;;;;;;10.52;0.10;;;7.20;99.90;;;;;;5017097;28;20021;-80
2023/01/10 00:52:45;;;;;;;9.00;0.55;;;6.50;99.90;;;;;;5017710;28;20373;-80
2023/01/10 00:55:10;;;;;;;6.13;0.10;;;6.50;99.90;;;;;;5018680;28;20072;-80
2023/01/10 00:57:41;;;;;;;17.33;0.68;;;6.50;99.90;;;;;;5018628;28;20048;-80
2023/01/10 01:00:08;;;;;;;5.10;0.05;;;6.50;99.90;;;;;;5017071;28;20070;-80
2023/01/10 01:02:34;;;;;;;5.95;0.15;;;6.50;99.90;;;;;;5016986;28;20032;-80
2023/01/10 01:05:00;;;;;;;7.00;0.25;;;6.50;99.90;;;;;;5019018;28;20050;-80
2023/01/10 01:07:26;;;;;;;8.95;1.35;;;6.60;99.90;;;;;;5017802;28;20022;-80
2023/01/10 01:12:35;;;;;;;7.55;0.73;;;6.50;99.90;;;;;;5018803;28;20061;-81
2023/01/10 01:15:01;;;;;;;13.20;0.30;;;6.50;99.90;;;;;;5017312;28;20431;-80
2023/01/10 01:17:27;;;;;;;7.90;1.10;;;6.50;99.90;;;;;;5016571;28;20018;-80
2023/01/10 01:19:52;;;;;;;15.35;0.88;;;6.50;99.90;;;;;;5016405;28;20125;-80
2023/01/10 01:22:18;;;;;;;14.13;0.63;;;6.60;99.90;;;;;;5016248;28;20080;-80
2023/01/10 01:24:46;;;;;;;11.45;1.02;;;6.60;99.90;;;;;;5016812;28;20057;-80
2023/01/10 01:27:15;;;;;;;9.00;0.93;;;6.60;99.90;;;;;;5018524;28;20100;-80
2023/01/10 01:29:40;;;;;;;8.30;0.55;;;6.60;99.90;;;;;;5017164;28;20025;-81
2023/01/10 01:32:06;;;;;;;10.98;0.88;;;6.60;99.90;;;;;;5017467;28;20018;-81
2023/01/10 01:34:31;;;;;;;10.88;0.28;;;9.10;99.90;;;;;;5017156;28;20053;-80
2023/01/10 01:36:57;;;;;;;10.77;0.20;;;6.40;99.90;;;;;;5016547;28;20025;-80
2023/01/10 01:39:23;;;;;;;15.05;0.80;;;6.50;99.90;;;;;;5017988;28;20021;-80
2023/01/10 01:41:59;;;;;;;7.22;0.65;;;6.50;99.90;;;;;;5016311;28;20069;-81
2023/01/10 01:44:30;;;;;;;6.78;0.22;;;6.50;99.90;;;;;;5018210;28;20105;-80
2023/01/10 01:47:11;;;;;;;10.10;0.98;;;6.40;99.90;;;;;;5017637;28;20026;-80
2023/01/10 01:49:39;;;;;;;12.93;0.90;;;6.40;99.90;;;;;;5015977;28;20102;-80
2023/01/10 01:52:15;;;;;;;14.53;0.40;;;6.40;99.90;;;;;;5016873;28;20049;-80
2023/01/10 01:54:44;;;;;;;10.98;0.73;;;6.30;99.90;;;;;;5016726;28;20029;-80
2023/01/10 01:57:16;;;;;;;9.80;0.93;;;6.30;99.90;;;;;;5016217;28;20018;-80
2023/01/10 01:59:52;;;;;;;9.43;0.30;;;6.30;99.90;;;;;;5015855;28;20480;-80
2023/01/10 02:02:38;;;;;;;8.02;0.00;;;6.20;99.90;;;;;;5017826;28;20030;-80
2023/01/10 02:05:15;;;;;;;14.73;1.13;;;6.30;99.90;;;;;;5016579;28;20397;-81
2023/01/10 02:07:45;;;;;;;14.35;0.32;;;6.30;99.90;;;;;;5016391;28;20040;-81
2023/01/10 02:10:14;;;;;;;10.13;0.52;;;6.30;99.90;;;;;;5015660;28;20057;-80
2023/01/10 02:12:41;;;;;;;7.55;0.73;;;6.30;99.90;;;;;;5016153;28;20023;-81
2023/01/10 02:15:08;;;;;;;14.68;1.27;;;6.30;99.90;;;;;;5016024;28;20018;-80
2023/01/10 02:17:37;;;;;;;6.93;0.20;;;6.30;99.90;;;;;;5016283;28;20504;-80
2023/01/10 02:20:06;;;;;;;5.93;0.70;;;6.30;99.90;;;;;;5016448;28;20108;-80
2023/01/10 02:22:51;;;;;;;7.45;0.20;;;6.40;99.90;;;;;;5016043;28;20022;-80
2023/01/10 02:25:22;;;;;;;9.75;0.50;;;6.40;99.90;;;;;;5018091;28;20041;-80
2023/01/10 02:28:28;;;;;;;14.27;1.05;;;6.50;99.90;;;;;;5017138;28;20022;-80
2023/01/10 02:31:25;;;;;;;9.70;0.47;;;6.50;99.90;;;;;;5017376;28;20026;-81
2023/01/10 02:34:15;;;;;;;17.30;1.38;;;6.60;99.90;;;;;;5016138;28;20030;-80
2023/01/10 02:37:09;;;;;;;9.77;0.25;;;6.60;99.90;;;;;;5017120;28;20057;-80
2023/01/10 02:39:41;;;;;;;14.40;0.82;;;6.70;99.90;;;;;;5017470;28;20089;-80
2023/01/10 02:42:11;;;;;;;16.20;1.10;;;6.70;99.90;;;;;;5018377;28;20053;-79
2023/01/10 02:44:50;;;;;;;14.32;1.50;;;6.60;99.90;;;;;;5015893;28;20163;-80
2023/01/10 02:47:18;;;;;;;13.77;1.13;;;6.60;99.90;;;;;;5015306;28;20025;-80
2023/01/10 02:49:46;;;;;;;12.27;0.45;;;7.60;99.90;;;;;;5015072;28;20088;-80
2023/01/10 02:52:26;;;;;;;13.20;0.57;;;6.50;99.90;;;;;;5015664;28;20033;-80
2023/01/10 02:54:57;;;;;;;16.80;1.35;;;6.50;99.90;;;;;;5016649;28;20069;-80
2023/01/10 02:57:44;;;;;;;10.65;0.60;;;6.40;99.90;;;;;;5015212;28;20023;-80
2023/01/10 03:00:21;;;;;;;10.65;0.65;;;6.50;99.90;;;;;;5014864;28;20072;-81
2023/01/10 03:02:57;;;;;;;16.20;0.60;;;6.50;99.90;;;;;;5016985;28;20520;-80
2023/01/10 03:06:00;;;;;;;10.20;0.98;;;6.50;99.90;;;;;;5016807;28;20117;-82
2023/01/10 03:08:38;;;;;;;9.82;1.33;;;6.60;99.90;;;;;;5016830;28;20101;-80
2023/01/10 03:11:11;;;;;;;12.75;0.82;;;;;;;;;;5018186;28;20038;-79
2023/01/10 03:13:51;;;;;;;13.93;0.85;;;6.60;99.90;;;;;;5018147;28;20092;-78
2023/01/10 03:16:23;;;;;;;12.77;0.40;;;7.10;99.90;;;;;;5017006;28;20029;-78
2023/01/10 03:18:59;;;;;;;14.35;0.98;;;6.70;99.90;;;;;;5016087;28;20064;-79
2023/01/10 03:21:30;;;;;;;12.13;0.40;;;6.70;99.90;;;;;;5016940;28;20053;-79
2023/01/10 03:24:02;;;;;;;23.73;0.90;;;6.70;99.90;;;;;;5016707;28;20049;-78
2023/01/10 03:27:24;;;;;;;14.70;0.90;;;6.80;99.90;;;;;;5017218;28;20022;-78
2023/01/10 03:30:05;;;;;;;13.45;0.63;;;6.80;99.90;;;;;;4948715;28;20379;-79
2023/01/10 03:32:31;;;;;;;9.88;0.85;;;6.90;99.90;;;;;;5016110;28;20064;-79
2023/01/10 03:35:01;;;;;;;14.48;1.65;;;7.00;99.90;;;;;;5016259;28;20030;-78
2023/01/10 03:37:54;;;;;;;15.43;1.70;;;7.10;99.90;;;;;;5017270;28;20393;-79
2023/01/10 03:40:30;;;;;;;12.32;0.10;;;7.00;99.90;;;;;;5018563;28;20028;-78
2023/01/10 03:45:51;;;;;;;18.00;0.88;;;7.00;99.90;;;;;;5017873;28;20036;-79
2023/01/10 03:48:19;;;;;;;19.83;1.75;;;7.00;99.90;;;;;;5017400;28;20397;-79
2023/01/10 03:50:46;;;;;;;14.80;1.05;;;6.90;99.90;;;;;;5016481;28;20030;-79
2023/01/10 03:53:16;;;;;;;14.35;0.70;;;6.90;99.90;;;;;;5017565;28;20029;-79
2023/01/10 03:55:44;;;;;;;9.25;0.98;;;6.80;99.90;;;;;;5016108;28;20465;-79
2023/01/10 03:58:10;;;;;;;24.50;2.20;;;6.80;99.90;;;;;;5015548;28;20022;-79
2023/01/10 04:00:35;;;;;;;15.35;1.77;;;6.70;99.90;;;;;;5015768;28;20401;-78
2023/01/10 04:03:01;;;;;;;15.73;1.02;;;6.70;99.90;;;;;;5017088;28;20030;-78
2023/01/10 04:05:28;;;;;;;10.60;1.48;;;6.80;99.90;;;;;;5015616;28;20130;-79
2023/01/10 04:07:55;;;;;;;17.42;0.77;;;6.80;99.90;;;;;;5015829;28;20080;-78
2023/01/10 04:10:23;;;;;;;14.23;0.75;;;6.80;99.90;;;;;;5015736;28;20045;-79
2023/01/10 04:12:49;;;;;;;8.57;1.38;;;6.80;99.90;;;;;;5017245;28;20018;-78
2023/01/10 04:15:14;;;;;;;11.98;0.50;;;6.80;99.90;;;;;;5015850;28;20072;-79
2023/01/10 04:17:47;;;;;;;11.52;0.40;;;6.70;99.90;;;;;;5017527;28;20444;-79
2023/01/10 04:20:13;;;;;;;12.32;0.68;;;7.30;99.90;;;;;;5015692;28;20117;-79
2023/01/10 04:22:39;;;;;;;9.60;1.10;;;6.80;99.90;;;;;;5016661;28;20049;-78
2023/01/10 04:25:05;;;;;;;15.18;2.58;;;6.70;99.90;;;;;;5016529;28;20469;-78
2023/01/10 04:27:30;;;;;;;17.75;1.13;;;6.70;99.90;;;;;;5014206;28;20033;-78
2023/01/10 04:29:56;;;;;;;10.00;0.32;;;6.80;99.90;;;;;;5015073;28;20022;-79
2023/01/10 04:32:24;;;;;;;13.05;0.82;;;6.80;99.90;;;;;;5016087;28;20447;-78
2023/01/10 04:34:52;;;;;;;12.43;1.07;;;10.40;99.90;;;;;;5015331;28;20112;-79
2023/01/10 04:37:18;;;;;;;10.60;1.08;;;6.80;99.90;;;;;;5016584;28;20072;-79
2023/01/10 04:39:44;;;;;;;14.00;1.08;;;6.70;99.90;;;;;;5015325;28;20050;-79
2023/01/10 04:42:10;;;;;;;19.10;0.98;;;6.70;99.90;;;;;;5015605;28;20116;-79
2023/01/10 04:44:36;;;;;;;14.45;0.82;;;6.50;99.90;;;;;;5016314;28;20026;-79
2023/01/10 04:47:01;;;;;;;13.55;0.93;;;6.40;99.90;;;;;;5016586;28;20029;-80
2023/01/10 04:49:28;;;;;;;16.10;0.30;;;6.40;99.90;;;;;;5014527;28;20030;-79
2023/01/10 04:51:57;;;;;;;12.88;0.70;;;;;;;;;;5014797;28;20044;-79
2023/01/10 04:54:35;;;;;;;9.35;0.52;;;6.30;99.90;;;;;;5016364;28;20065;-79
2023/01/10 04:57:04;;;;;;;17.40;0.85;;;6.30;99.90;;;;;;5014710;28;20060;-78
2023/01/10 04:59:31;;;;;;;11.48;0.85;;;6.20;99.90;;;;;;5014723;28;20424;-79
2023/01/10 05:02:00;;;;;;;14.23;0.70;;;6.00;99.90;;;;;;5014430;28;20022;-78
2023/01/10 05:04:26;;;;;;;16.45;0.75;;;6.00;99.90;;;;;;5014530;28;20014;-78
2023/01/10 05:06:52;;;;;;;15.90;0.57;;;5.90;99.90;;;;;;5015759;28;20030;-78
2023/01/10 05:09:18;;;;;;;18.58;2.22;;;;;;;;;;5014087;28;20112;-79
2023/01/10 05:11:44;;;;;;;15.05;0.60;;;5.90;99.90;;;;;;5014696;28;20029;-79
2023/01/10 05:14:10;;;;;;;9.98;0.95;;;5.90;99.90;;;;;;5015194;28;20493;-78
2023/01/10 05:16:35;;;;;;;20.50;1.50;;;5.80;99.90;;;;;;5013985;28;20440;-78
2023/01/10 05:19:01;;;;;;;11.93;0.47;;;;;;;;;;5014443;28;20045;-78
2023/01/10 05:21:27;;;;;;;25.98;1.20;;;5.80;99.90;;;;;;5014078;28;20029;-79
2023/01/10 05:23:53;;;;;;;14.65;0.73;;;5.80;99.90;;;;;;5014777;28;20029;-78
2023/01/10 05:26:21;;;;;;;11.52;1.15;;;5.80;99.90;;;;;;5014486;28;20028;-79
2023/01/10 05:28:47;;;;;;;7.90;0.38;;;5.80;99.90;;;;;;5014311;28;20511;-79
2023/01/10 05:31:15;;;;;;;15.82;2.00;;;6.10;99.90;;;;;;5013851;28;20053;-79
2023/01/10 05:33:49;;;;;;;13.63;1.02;;;5.70;99.90;;;;;;5013814;28;20025;-79
2023/01/10 05:36:15;;;;;;;10.02;0.63;;;5.60;99.90;;;;;;5014055;28;20033;-78
2023/01/10 05:38:41;;;;;;;11.32;1.10;;;5.60;99.90;;;;;;5015282;28;20414;-79
2023/01/10 05:41:07;;;;;;;12.60;1.30;;;5.60;99.90;;;;;;5013665;28;20113;-79
2023/01/10 05:43:32;;;;;;;15.25;1.30;;;5.60;99.90;;;;;;5013914;28;20030;-78
2023/01/10 05:45:58;;;;;;;14.32;0.90;;;5.60;99.90;;;;;;5013731;28;20017;-78
2023/01/10 05:48:23;;;;;;;19.85;2.25;;;5.60;99.90;;;;;;5015951;28;20026;-79
2023/01/10 05:50:50;;;;;;;10.85;1.48;;;5.60;99.90;;;;;;5015343;28;20029;-79
2023/01/10 05:53:16;;;;;;;12.43;0.50;;;5.50;99.90;;;;;;5014408;28;20018;-79
2023/01/10 05:55:42;;;;;;;12.10;0.52;;;6.20;99.90;;;;;;5014427;28;20021;-79
2023/01/10 05:58:10;;;;;;;13.48;1.05;;;8.00;99.90;;;;;;5014413;28;20033;-79
2023/01/10 06:00:35;;;;;;;15.85;0.50;;;5.30;99.90;;;;;;5013803;28;20037;-79
2023/01/10 06:03:01;;;;;;;16.13;1.45;;;5.20;99.90;;;;;;5014109;28;20374;-79
2023/01/10 06:05:27;;;;;;;12.75;1.25;;;5.20;99.90;;;;;;5014358;28;20056;-82
2023/01/10 06:07:52;;;;;;;14.20;1.13;;;5.10;99.90;;;;;;5018729;28;20022;-80
2023/01/10 06:10:18;;;;;;;14.70;1.15;;;5.20;99.90;;;;;;5016601;28;20473;-78
2023/01/10 06:12:43;;;;;;;12.48;1.88;;;5.20;99.90;;;;;;5013777;28;20048;-78
2023/01/10 06:15:09;;;;;;;20.60;1.80;;;5.20;99.90;;;;;;5012311;28;20068;-78
2023/01/10 06:17:35;;;;;;;14.95;0.60;;;5.30;99.90;;;;;;5013459;28;20048;-78
2023/01/10 06:20:01;;;;;;;16.00;0.90;;;5.50;99.90;;;;;;5013365;28;20057;-78
2023/01/10 06:22:27;;;;;;;8.45;0.55;;;5.50;99.90;;;;;;5012385;28;20026;-75
2023/01/10 06:24:54;;;;;;;15.15;0.98;;;5.50;99.90;;;;;;5012221;28;20120;-76
2023/01/10 06:27:19;;;;;;;14.48;1.85;;;5.60;99.90;;;;;;5013324;28;20153;-75
2023/01/10 06:29:45;;;;;;;17.40;1.02;;;5.70;99.90;;;;;;5012064;28;20520;-75
2023/01/10 06:32:11;;;;;;;12.30;0.80;;;5.80;99.90;;;;;;5012314;28;20018;-77
2023/01/10 06:34:37;;;;;;;12.02;1.42;;;5.80;99.90;;;;;;5012181;28;20018;-77
2023/01/10 06:37:02;;;;;;;18.88;1.55;;;5.80;99.90;;;;;;5014732;28;20437;-78
2023/01/10 06:39:28;;;;;;;9.95;1.00;;;5.90;99.90;;;;;;5013265;28;20056;-77
2023/01/10 06:41:54;;;;;;;16.55;0.75;;;5.90;99.90;;;;;;5012050;28;20049;-77
2023/01/10 06:44:19;;;;;;;12.63;2.13;;;5.90;99.90;;;;;;5011979;28;20116;-77
2023/01/10 06:46:45;;;;;;;12.70;1.25;;;6.00;99.90;;;;;;5017088;28;20030;-77
2023/01/10 06:49:10;;;;;;;31.08;1.80;;;6.00;99.90;;;;;;5015583;28;20033;-77
2023/01/10 06:51:36;;;;;;;12.85;1.65;;;6.00;99.90;;;;;;5016900;28;20037;-77
2023/01/10 06:54:01;;;;;;;11.18;0.95;;;6.00;99.90;;;;;;5017269;28;20061;-77
2023/01/10 06:56:27;;;;;;;23.10;1.95;;;6.10;99.90;;;;;;5016950;28;20022;-76
2023/01/10 06:58:52;;;;;;;18.65;1.45;;;6.20;99.90;;;;;;5016838;28;20026;-76
2023/01/10 07:01:20;;;;;;;18.33;2.13;;;6.30;99.90;;;;;;5016737;28;20067;-76
2023/01/10 07:03:46;;;;;;;19.63;2.20;;;6.30;99.90;;;;;;5015894;28;20022;-76
2023/01/10 07:06:12;;;;;;;12.95;0.88;;;6.30;99.90;;;;;;5015560;28;20021;-78
2023/01/10 07:08:40;;;;;;;20.73;1.42;;;6.30;99.90;;;;;;5016680;28;20022;-76
2023/01/10 07:11:07;;;;;;;13.55;1.52;;;6.40;99.90;;;;;;5017285;28;20389;-76
2023/01/10 07:13:32;;;;;;;18.55;1.95;;;6.40;99.90;;;;;;5017216;28;20020;-76
2023/01/10 07:16:09;;;;;;;11.20;0.65;;;6.50;99.90;;;;;;5016842;28;20026;-77
2023/01/10 07:18:37;;;;;;;10.93;1.42;;;6.50;99.90;;;;;;5015685;28;20018;-78
2023/01/10 07:21:03;;;;;;;21.58;1.65;;;6.40;99.90;;;;;;5015161;28;20392;-77
2023/01/10 07:23:30;;;;;;;18.52;2.25;;;6.50;99.90;;;;;;5015226;28;20113;-77
2023/01/10 07:25:56;;;;;;;18.42;0.98;;;6.60;99.90;;;;;;5015484;28;20030;-77
2023/01/10 07:28:21;;;;;;;14.90;1.20;;;6.60;99.90;;;;;;5016514;28;20040;-77
2023/01/10 07:30:48;;;;;;;18.60;1.58;;;6.60;99.90;;;;;;5015289;28;20038;-77
2023/01/10 07:33:14;;;;;;;15.63;1.45;;;6.70;99.90;;;;;;5015132;28;20022;-78
2023/01/10 07:35:39;;;;;;;15.13;1.10;;;6.60;99.90;;;;;;5015300;28;20022;-77
2023/01/10 07:38:05;;;;;;;18.20;1.45;;;6.60;99.90;;;;;;5016115;28;20018;-77
2023/01/10 07:40:30;;;;;;;20.98;1.40;;;6.50;99.90;;;;;;5014694;28;20095;-77
2023/01/10 07:43:00;;;;;;;13.65;1.05;;;8.90;99.90;;;;;;5015957;28;20022;-77
2023/01/10 07:45:27;;;;;;;20.10;3.38;;;6.50;99.90;;;;;;5016584;28;20022;-77
2023/01/10 07:48:00;;;;;;;15.38;1.58;;;6.50;99.90;;;;;;5015127;28;20061;-77
2023/01/10 07:50:27;;;;;;;20.17;2.90;;;6.40;99.90;;;;;;5015499;28;20037;-77
2023/01/10 07:52:54;;;;;;;17.00;1.35;;;6.40;99.90;;;;;;5014792;28;20213;-77
2023/01/10 07:55:20;;;;;;;17.65;1.60;;;6.30;99.90;;;;;;5014717;28;20026;-77
2023/01/10 07:57:46;;;;;;;20.60;3.20;;;6.30;99.90;;;;;;5015104;28;20045;-76
2023/01/10 08:00:12;;;;;;;18.58;1.65;;;6.10;99.90;;;;;;5015267;28;20025;-76
2023/01/10 08:02:38;;;;;;;13.63;1.90;;;6.10;99.90;;;;;;5015407;28;20034;-76
2023/01/10 08:05:04;;;;;;;14.63;1.33;;;6.10;99.90;;;;;;5016013;28;20022;-76
2023/01/10 08:07:30;;;;;;;23.02;2.53;;;6.00;99.90;;;;;;5016171;28;20025;-76
2023/01/10 08:09:56;;;;;;;16.05;1.65;;;5.90;99.90;;;;;;5015777;28;20041;-76
2023/01/10 08:12:23;;;;;;;13.00;1.52;;;5.90;99.90;;;;;;5014692;28;20481;-77
2023/01/10 08:14:52;;;;;;;20.77;2.90;;;5.80;99.90;;;;;;5014392;28;20018;-77
2023/01/10 08:17:18;;;;;;;;;;;5.80;99.90;;;;;;5016018;28;20029;-78
2023/01/10 08:19:44;;;;;;;7.18;1.23;;;5.70;99.90;;;;;;5014233;28;19906;-77
2023/01/10 08:22:10;;;;;;;13.75;2.17;;;5.70;99.90;;;;;;5015498;28;20021;-77
2023/01/10 08:24:35;;;;;;;16.27;1.13;;;5.70;99.90;;;;;;5015395;28;20128;-77
2023/01/10 08:27:01;;;;;;;14.60;1.95;;;5.70;99.90;;;;;;5015493;28;20030;-77
2023/01/10 08:29:27;;;;;;;19.83;3.50;;;5.70;99.90;;;;;;5013919;28;20030;-77
2023/01/10 08:31:53;;;;;;;13.75;1.88;;;5.70;99.90;;;;;;5018091;28;20095;-81
2023/01/10 08:34:19;;;;;;;22.63;2.33;;;5.80;99.90;;;;;;5017521;28;20105;-79
2023/01/10 08:36:45;;;;;;;14.32;1.38;;;5.70;99.90;;;;;;5015911;28;20113;-80
2023/01/10 08:39:12;;;;;;;15.68;2.10;;;5.80;99.90;;;;;;5022760;28;20028;-82
2023/01/10 08:41:40;;;;;;;23.73;2.40;;;5.80;99.90;;;;;;5028481;28;20094;-83
2023/01/10 08:44:05;;;;;;;24.05;1.95;;;5.80;99.90;;;;;;5027645;28;20018;-82
2023/01/10 08:46:31;;;;;;;26.77;3.78;;;5.90;99.90;;;;;;5026261;28;20026;-81
2023/01/10 08:48:56;;;;;;;19.10;2.08;;;5.80;99.90;;;;;;5025323;28;20480;-82
2023/01/10 08:51:22;;;;;;;18.38;2.42;;;5.80;99.90;;;;;;5027529;28;20077;-83
2023/01/10 08:53:48;;;;;;;9.15;1.50;;;5.90;99.90;;;;;;5027887;28;20025;-82
2023/01/10 08:56:13;;;;;;;19.98;2.85;;;5.90;99.90;;;;;;5026977;28;20029;-81
2023/01/10 08:58:39;;;;;;;14.82;1.52;;;5.90;99.90;;;;;;5020989;28;20470;-79
2023/01/10 09:01:10;;;;;;;22.30;3.13;;;6.70;99.90;;;;;;5015432;28;20049;-79
2023/01/10 09:03:36;;;;;;;16.00;1.55;;;5.90;99.90;;;;;;5015768;28;20033;-78
2023/01/10 09:06:02;;;;;;;13.88;2.47;;;5.90;99.90;;;;;;5016812;28;20102;-78
2023/01/10 09:31:41;;;;;;;19.30;1.80;;;6.10;99.90;;;;;;5034238;28;20049;-89
2023/01/10 09:34:07;;;;;;;17.45;1.90;;;;;;;;;;5032678;28;20493;-89
2023/01/10 09:36:33;;;;;;;16.15;2.08;;;;;;;;;;5029686;28;20018;-90
2023/01/10 09:38:59;;;;;;;13.82;2.35;;;;;;;;;;5034869;28;20501;-91
2023/01/10 09:42:04;;;;;;;11.88;1.85;;;6.10;99.90;;;;;;5031759;28;20025;-88
2023/01/10 09:45:00;;;;;;;24.50;3.30;;;6.10;99.90;;;;;;5034206;28;20033;-89
2023/01/10 09:47:44;;;;;;;17.60;2.13;;;6.20;99.90;;;;;;5030156;28;20026;-88
2023/01/10 09:50:48;;;;;;;21.55;1.75;;;6.10;99.90;;;;;;5026902;28;20042;-89
2023/01/10 09:53:21;;;;;;;25.63;2.33;;;6.20;99.90;;;;;;5029771;28;20045;-90
2023/01/10 09:55:59;;;;;;;15.98;1.23;;;6.20;99.90;;;;;;5034391;28;20026;-89
2023/01/10 09:58:27;;;;;;;15.77;1.15;;;6.20;99.90;;;;;;5033330;28;20132;-88
2023/01/10 10:01:06;;;;;;;20.40;2.47;;;6.20;99.90;;;;;;5032458;28;20022;-90
2023/01/10 10:04:01;;;;;;;16.98;1.85;;;6.30;99.90;;;;;;5032875;28;20026;-90
2023/01/10 10:06:27;;;;;;;14.98;2.15;;;;;;;;;;5037521;28;20003;-88
2023/01/10 10:08:53;;;;;;;15.95;1.50;;;;;;;;;;5037408;28;20036;-85
2023/01/10 10:11:44;;;;;;;17.30;1.42;;;6.30;99.90;;;;;;5037532;28;20053;-89
2023/01/10 10:14:19;;;;;;;16.67;1.13;;;;;;;;;;5037554;28;20029;-89
2023/01/10 10:17:26;;;;;;;12.77;1.98;;;6.20;99.90;;;;;;5037823;28;20025;-89
2023/01/10 10:19:52;;;;;;;15.15;1.13;;;;;;;;;;5037221;28;20081;-89
2023/01/10 10:22:21;;;;;;;12.57;1.23;;;;;;;;;;5039373;28;20040;-88
2023/01/10 10:24:57;;;;;;;;;;;6.20;99.90;;;;;;5041407;28;20041;-88
2023/01/10 10:27:35;;;;;;;15.50;1.83;;;6.20;99.90;;;;;;5041577;28;19985;-88
2023/01/10 10:30:13;;;;;;;8.65;2.00;;;6.10;99.90;;;;;;5038337;28;20038;-89
2023/01/10 10:33:08;;;;;;;14.07;2.03;;;6.20;99.90;;;;;;5038669;28;20033;-87
2023/01/10 10:35:51;;;;;;;13.23;1.40;;;6.10;99.90;;;;;;5041122;28;20010;-89
2023/01/10 10:38:25;;;;;;;11.93;1.00;;;6.20;99.90;;;;;;5039250;28;20046;-87
2023/01/10 10:40:52;;;;;;;13.77;1.73;;;6.10;99.90;;;;;;5038402;28;20030;-90
2023/01/10 10:43:24;;;;;;;10.75;1.10;;;6.20;99.90;;;;;;5032214;28;20026;-89
2023/01/10 10:45:59;;;;;;;16.63;2.60;;;6.20;99.90;;;;;;5039075;28;20018;-86
2023/01/10 10:48:49;;;;;;;8.68;1.63;;;6.00;99.90;;;;;;5034414;28;20053;-88
2023/01/10 10:51:34;;;;;;;24.08;1.20;;;6.20;99.90;;;;;;5039642;28;20034;-89
2023/01/10 10:54:00;;;;;;;14.10;0.70;;;;;;;;;;5038973;28;20026;-89
2023/01/10 10:56:26;;;;;;;12.75;1.70;;;6.20;99.90;;;;;;5036052;28;20052;-88
2023/01/10 10:58:57;;;;;;;10.38;0.80;;;6.20;99.90;;;;;;5037469;28;20026;-89
2023/01/10 11:01:23;;;;;;;17.27;1.55;;;;;;;;;;5038381;28;20084;-88
2023/01/10 11:03:59;;;;;;;16.23;1.08;;;6.10;99.90;;;;;;5034631;28;20025;-88
2023/01/10 11:06:28;;;;;;;10.98;1.45;;;6.20;99.90;;;;;;5033864;28;20014;-89
2023/01/10 11:08:59;;;;;;;13.80;1.48;;;6.20;99.90;;;;;;5039423;28;20387;-86
2023/01/10 11:11:35;;;;;;;15.02;1.98;;;6.20;99.90;;;;;;5039466;28;20102;-88
2023/01/10 11:14:03;;;;;;;16.65;1.65;;;6.30;99.90;;;;;;5036243;28;20026;-87
2023/01/10 11:16:41;;;;;;;8.45;0.73;;;6.20;99.90;;;;;;5037103;28;20022;-88
2023/01/10 11:19:22;;;;;;;7.05;1.38;;;6.30;99.90;;;;;;5039992;28;20018;-88
2023/01/10 11:21:55;;;;;;;15.32;1.48;;;6.30;99.90;;;;;;5041188;28;20022;-89
2023/01/10 11:24:37;;;;;;;20.15;1.58;;;6.20;99.90;;;;;;5039814;28;20033;-89
2023/01/10 11:27:18;;;;;;;16.15;1.50;;;6.20;99.90;;;;;;5038043;28;20030;-85
2023/01/10 11:30:08;;;;;;;16.35;1.50;;;6.20;99.90;;;;;;5027647;28;20125;-90
2023/01/10 11:32:36;;;;;;;17.20;0.75;;;6.20;99.90;;;;;;5026108;28;20022;-88
2023/01/10 11:35:08;;;;;;;12.13;1.25;;;6.20;99.90;;;;;;5031856;28;20010;-89
2023/01/10 11:37:35;;;;;;;9.07;1.27;;;6.30;99.90;;;;;;5027400;28;20018;-89
2023/01/10 11:40:24;;;;;;;10.98;0.57;;;6.20;99.90;;;;;;5027257;28;20118;-89
2023/01/10 11:42:55;;;;;;;15.07;1.20;;;6.30;99.90;;;;;;5027934;28;20045;-88
2023/01/10 11:45:33;;;;;;;10.85;0.95;;;7.70;99.90;;;;;;5028540;28;20552;-90
2023/01/10 11:48:07;;;;;;;16.83;1.85;;;6.40;99.90;;;;;;5025625;28;20112;-89
2023/01/10 11:50:40;;;;;;;16.95;1.60;;;6.20;99.90;;;;;;5023854;28;20495;-88
2023/01/10 11:53:06;;;;;;;13.35;2.22;;;;;;;;;;5028812;28;20045;-88
2023/01/10 11:55:36;;;;;;;14.73;1.05;;;6.50;99.90;;;;;;5028267;28;20022;-88
2023/01/10 11:58:13;;;;;;;18.58;1.52;;;6.50;99.90;;;;;;5028100;28;20030;-88
2023/01/10 12:00:47;;;;;;;16.50;1.20;;;6.60;99.90;;;;;;5036465;28;20045;-87
2023/01/10 12:03:19;;;;;;;14.45;0.40;;;;;;;;;;5030141;28;20034;-89
2023/01/10 12:05:53;;;;;;;15.43;0.95;;;6.60;99.90;;;;;;5028467;28;20026;-89
2023/01/10 12:08:28;;;;;;;8.45;1.02;;;6.60;99.90;;;;;;5027380;28;20022;-89
2023/01/10 12:11:00;;;;;;;15.07;0.63;;;6.60;99.90;;;;;;5027270;28;20050;-89
2023/01/10 12:13:28;;;;;;;8.50;0.88;;;6.60;99.90;;;;;;5030263;28;20085;-88
2023/01/10 12:16:24;;;;;;;7.70;0.88;;;6.70;99.90;;;;;;5025642;28;20037;-88
2023/01/10 12:18:52;;;;;;;14.10;1.13;;;6.70;99.90;;;;;;5022461;28;20498;-89
2023/01/10 12:21:25;;;;;;;7.53;0.70;;;6.70;99.90;;;;;;5023770;28;20045;-89
2023/01/10 12:23:54;;;;;;;8.88;0.85;;;6.70;99.90;;;;;;5021864;28;20041;-90
2023/01/10 12:26:20;;;;;;;15.40;1.17;;;;;;;;;;5022730;28;20505;-88
2023/01/10 12:28:56;;;;;;;7.03;0.60;;;6.80;99.90;;;;;;5032219;28;20014;-89
2023/01/10 12:31:22;;;;;;;12.57;1.08;;;;;;;;;;5035991;28;20052;-87
2023/01/10 12:33:55;;;;;;;8.07;0.55;;;6.70;99.90;;;;;;5036913;28;20089;-89
2023/01/10 12:36:31;;;;;;;18.67;1.88;;;;;;;;;;5035931;28;20034;-89
2023/01/10 12:39:02;;;;;;;10.50;1.15;;;;;;;;;;5036428;28;20419;-89
2023/01/10 12:44:40;;;;;;;13.70;0.77;;;6.80;99.90;;;;;;5035849;28;20025;-88
2023/01/10 12:47:37;;;;;;;15.52;1.42;;;6.80;99.90;;;;;;5036886;28;20049;-89
2023/01/10 12:50:26;;;;;;;16.98;1.17;;;6.90;99.90;;;;;;5035567;28;20118;-89
2023/01/10 12:53:07;;;;;;;15.40;2.00;;;6.80;99.90;;;;;;5034289;28;20018;-88
2023/01/10 12:55:40;;;;;;;9.65;0.20;;;6.80;99.90;;;;;;5030466;28;20037;-90
2023/01/10 12:58:21;;;;;;;11.23;2.15;;;6.90;99.90;;;;;;5032548;28;20050;-90
2023/01/10 13:00:58;;;;;;;16.88;1.60;;;6.90;99.90;;;;;;5026163;28;20375;-91
2023/01/10 13:03:28;;;;;;;8.35;0.68;;;6.80;99.90;;;;;;5031014;28;20026;-89
2023/01/10 13:05:57;;;;;;;8.13;0.73;;;6.90;99.90;;;;;;5034064;28;20022;-90
2023/01/10 13:08:26;;;;;;;12.63;1.45;;;7.00;99.90;;;;;;5028191;28;20026;-89
2023/01/10 13:10:56;;;;;;;11.05;0.45;;;7.00;99.90;;;;;;5027257;28;20022;-88
2023/01/10 13:13:22;;;;;;;12.82;0.85;;;;;;;;;;5025401;28;20474;-88
2023/01/10 13:16:00;;;;;;;10.65;0.95;;;7.00;99.90;;;;;;5026097;28;20084;-88
2023/01/10 13:18:29;;;;;;;17.10;0.95;;;7.10;99.90;;;;;;5026690;28;20057;-89
2023/01/10 13:21:12;;;;;;;17.77;2.08;;;7.10;99.90;;;;;;5037078;28;20010;-90
2023/01/10 13:23:50;;;;;;;10.98;1.48;;;7.10;99.90;;;;;;5032537;28;20083;-88
2023/01/10 13:26:16;;;;;;;12.40;1.30;;;7.10;99.90;;;;;;5023963;28;20021;-89
2023/01/10 13:28:59;;;;;;;6.97;0.98;;;7.10;99.90;;;;;;5025093;28;20022;-89
2023/01/10 13:31:30;;;;;;;12.23;1.17;;;7.10;99.90;;;;;;5032830;28;20049;-90
2023/01/10 13:33:59;;;;;;;20.00;1.83;;;7.40;99.90;;;;;;5032850;28;20018;-90
2023/01/10 13:36:34;;;;;;;12.07;0.57;;;7.20;99.90;;;;;;5030807;28;20029;-89
2023/01/10 13:39:02;;;;;;;8.63;0.88;;;7.20;99.90;;;;;;5028192;28;20061;-90
2023/01/10 13:45:03;;;;;;;10.68;0.63;;;;;;;;;;5033762;28;20037;-89
2023/01/10 13:47:45;;;;;;;11.60;1.35;;;7.20;99.90;;;;;;5032507;28;20025;-87
2023/01/10 13:50:32;;;;;;;12.50;1.10;;;;;;;;;;5031682;28;20034;-89
2023/01/10 13:53:01;;;;;;;12.65;0.50;;;7.20;99.90;;;;;;5034811;28;20029;-89
2023/01/10 13:55:27;;;;;;;7.22;0.55;;;;;;;;;;5032114;28;20030;-88